KLVM/LVM METAR and TAF weather

Enter ICAO airport designator
Station Type Date Time Source
KLVM METAR 2020/12/06 00:53 UTC NOAA

KLVM 060053Z AUTO 30017KT 10SM CLR 03/M08 A3025 RMK AO2 PK WND 26026/0030 SLP276 T00331083


Station Type Date Time Source
KLVM Decoded METAR 2020/12/06 00:53 UTC NOAA

LIVINGSTON MISSION FIELD, MT, United States (KLVM) 45-42N 110-26W 1418M
Dec 05, 2020 - 07:53 PM EST / 2020.12.06 0053 UTC
Wind: from the WNW (300 degrees) at 20 MPH (17 KT):0
Visibility: 10 mile(s):0
Sky conditions: clear
Temperature: 37.9 F (3.3 C)
Dew Point: 17.1 F (-8.3 C)
Relative Humidity: 42%
Pressure (altimeter): 30.25 in. Hg (1024 hPa)
ob: KLVM 060053Z AUTO 30017KT 10SM CLR 03/M08 A3025 RMK AO2 PK WND 26026/0030 SLP276 T00331083
cycle: 1

Station Type Date Time Source
KLVM TAF 2020/12/05 18:24 UTC NOAA

TAF KLVM 051723Z 0518/0618 25018G29KT P6SM SKC
FM060200 22021G30KT P6SM FEW250

Example: see airport list